sensor_id;sensor_type;location;lat;lon;timestamp;P1;durP1;ratioP1;P2;durP2;ratioP2
10987;SDS011;5547;42.672;23.230;2023-08-30T00:00:33;9.20;;;6.00;;
10987;SDS011;5547;42.672;23.230;2023-08-30T00:03:33;7.83;;;6.10;;
10987;SDS011;5547;42.672;23.230;2023-08-30T00:06:34;7.90;;;5.93;;
10987;SDS011;5547;42.672;23.230;2023-08-30T00:09:34;7.20;;;5.93;;
10987;SDS011;5547;42.672;23.230;2023-08-30T00:12:36;7.85;;;5.78;;
10987;SDS011;5547;42.672;23.230;2023-08-30T00:15:36;7.83;;;6.17;;
10987;SDS011;5547;42.672;23.230;2023-08-30T00:18:37;8.93;;;6.27;;
10987;SDS011;5547;42.672;23.230;2023-08-30T00:21:37;10.23;;;5.97;;
10987;SDS011;5547;42.672;23.230;2023-08-30T00:24:37;7.83;;;5.83;;
10987;SDS011;5547;42.672;23.230;2023-08-30T00:27:38;8.65;;;6.13;;
10987;SDS011;5547;42.672;23.230;2023-08-30T00:30:38;8.43;;;6.10;;
10987;SDS011;5547;42.672;23.230;2023-08-30T00:33:39;8.27;;;5.43;;
10987;SDS011;5547;42.672;23.230;2023-08-30T00:36:39;8.57;;;6.67;;
10987;SDS011;5547;42.672;23.230;2023-08-30T00:39:40;9.67;;;5.53;;
10987;SDS011;5547;42.672;23.230;2023-08-30T00:42:40;8.10;;;5.87;;
10987;SDS011;5547;42.672;23.230;2023-08-30T00:45:41;9.88;;;5.95;;
10987;SDS011;5547;42.672;23.230;2023-08-30T00:48:41;8.65;;;6.10;;
10987;SDS011;5547;42.672;23.230;2023-08-30T00:51:44;8.95;;;5.70;;
10987;SDS011;5547;42.672;23.230;2023-08-30T00:54:44;9.27;;;5.87;;
10987;SDS011;5547;42.672;23.230;2023-08-30T00:57:45;7.90;;;5.68;;
10987;SDS011;5547;42.672;23.230;2023-08-30T01:00:45;9.55;;;6.45;;
10987;SDS011;5547;42.672;23.230;2023-08-30T01:03:47;7.90;;;5.50;;
10987;SDS011;5547;42.672;23.230;2023-08-30T01:06:47;6.27;;;5.23;;
10987;SDS011;5547;42.672;23.230;2023-08-30T01:09:48;10.18;;;5.78;;
10987;SDS011;5547;42.672;23.230;2023-08-30T01:12:49;8.17;;;5.33;;
10987;SDS011;5547;42.672;23.230;2023-08-30T01:15:58;7.97;;;5.40;;
10987;SDS011;5547;42.672;23.230;2023-08-30T01:19:01;8.43;;;5.03;;
10987;SDS011;5547;42.672;23.230;2023-08-30T01:22:15;8.85;;;5.88;;
10987;SDS011;5547;42.672;23.230;2023-08-30T01:28:39;9.40;;;5.82;;
10987;SDS011;5547;42.672;23.230;2023-08-30T01:31:40;8.27;;;5.27;;
10987;SDS011;5547;42.672;23.230;2023-08-30T01:34:42;8.07;;;5.38;;
10987;SDS011;5547;42.672;23.230;2023-08-30T01:37:46;9.23;;;5.82;;
10987;SDS011;5547;42.672;23.230;2023-08-30T01:40:47;6.95;;;5.47;;
10987;SDS011;5547;42.672;23.230;2023-08-30T01:43:49;7.72;;;5.65;;
10987;SDS011;5547;42.672;23.230;2023-08-30T01:46:51;7.60;;;5.20;;
10987;SDS011;5547;42.672;23.230;2023-08-30T01:49:54;8.77;;;5.40;;
10987;SDS011;5547;42.672;23.230;2023-08-30T01:52:56;8.70;;;5.77;;
10987;SDS011;5547;42.672;23.230;2023-08-30T01:55:57;9.07;;;6.00;;
10987;SDS011;5547;42.672;23.230;2023-08-30T01:58:58;8.73;;;5.70;;
10987;SDS011;5547;42.672;23.230;2023-08-30T02:01:58;10.77;;;6.13;;
10987;SDS011;5547;42.672;23.230;2023-08-30T02:04:58;8.45;;;5.95;;
10987;SDS011;5547;42.672;23.230;2023-08-30T02:08:17;10.03;;;6.30;;
10987;SDS011;5547;42.672;23.230;2023-08-30T02:11:26;8.95;;;6.20;;
10987;SDS011;5547;42.672;23.230;2023-08-30T02:14:27;11.20;;;7.22;;
10987;SDS011;5547;42.672;23.230;2023-08-30T02:17:29;11.70;;;7.28;;
10987;SDS011;5547;42.672;23.230;2023-08-30T02:20:31;9.07;;;6.82;;
10987;SDS011;5547;42.672;23.230;2023-08-30T02:23:32;10.13;;;6.65;;
10987;SDS011;5547;42.672;23.230;2023-08-30T02:26:32;8.97;;;6.17;;
10987;SDS011;5547;42.672;23.230;2023-08-30T02:29:32;9.87;;;6.17;;
10987;SDS011;5547;42.672;23.230;2023-08-30T02:32:33;8.27;;;5.40;;
10987;SDS011;5547;42.672;23.230;2023-08-30T02:35:34;9.13;;;5.55;;
10987;SDS011;5547;42.672;23.230;2023-08-30T02:38:34;9.43;;;5.90;;
10987;SDS011;5547;42.672;23.230;2023-08-30T02:41:35;10.70;;;5.53;;
10987;SDS011;5547;42.672;23.230;2023-08-30T02:44:35;9.10;;;5.80;;
10987;SDS011;5547;42.672;23.230;2023-08-30T02:47:36;8.93;;;5.47;;
10987;SDS011;5547;42.672;23.230;2023-08-30T02:50:36;8.90;;;5.73;;
10987;SDS011;5547;42.672;23.230;2023-08-30T02:53:36;8.73;;;5.70;;
10987;SDS011;5547;42.672;23.230;2023-08-30T02:56:37;8.13;;;5.60;;
10987;SDS011;5547;42.672;23.230;2023-08-30T02:59:37;8.97;;;5.33;;
10987;SDS011;5547;42.672;23.230;2023-08-30T03:02:38;9.43;;;5.90;;
10987;SDS011;5547;42.672;23.230;2023-08-30T03:05:38;9.07;;;5.43;;
10987;SDS011;5547;42.672;23.230;2023-08-30T03:08:38;9.17;;;5.77;;
10987;SDS011;5547;42.672;23.230;2023-08-30T03:11:39;8.98;;;5.00;;
10987;SDS011;5547;42.672;23.230;2023-08-30T03:14:39;7.60;;;4.73;;
10987;SDS011;5547;42.672;23.230;2023-08-30T03:17:40;9.63;;;5.20;;
10987;SDS011;5547;42.672;23.230;2023-08-30T03:20:40;7.57;;;4.70;;
10987;SDS011;5547;42.672;23.230;2023-08-30T03:23:40;7.83;;;4.87;;
10987;SDS011;5547;42.672;23.230;2023-08-30T03:26:42;7.53;;;4.57;;
10987;SDS011;5547;42.672;23.230;2023-08-30T03:29:43;9.63;;;4.20;;
10987;SDS011;5547;42.672;23.230;2023-08-30T03:32:43;10.50;;;4.70;;
10987;SDS011;5547;42.672;23.230;2023-08-30T03:35:44;10.60;;;4.60;;
10987;SDS011;5547;42.672;23.230;2023-08-30T03:38:45;7.90;;;4.23;;
10987;SDS011;5547;42.672;23.230;2023-08-30T03:41:46;9.80;;;4.60;;
10987;SDS011;5547;42.672;23.230;2023-08-30T03:44:46;7.23;;;4.63;;
10987;SDS011;5547;42.672;23.230;2023-08-30T03:47:46;8.00;;;4.22;;
10987;SDS011;5547;42.672;23.230;2023-08-30T03:50:47;8.68;;;4.30;;
10987;SDS011;5547;42.672;23.230;2023-08-30T03:53:47;8.27;;;4.38;;
10987;SDS011;5547;42.672;23.230;2023-08-30T03:56:48;6.83;;;3.83;;
10987;SDS011;5547;42.672;23.230;2023-08-30T03:59:48;6.77;;;3.83;;
10987;SDS011;5547;42.672;23.230;2023-08-30T04:02:48;7.03;;;4.33;;
10987;SDS011;5547;42.672;23.230;2023-08-30T04:05:54;8.15;;;4.68;;
10987;SDS011;5547;42.672;23.230;2023-08-30T04:08:56;7.57;;;4.07;;
10987;SDS011;5547;42.672;23.230;2023-08-30T04:11:57;6.75;;;3.45;;
10987;SDS011;5547;42.672;23.230;2023-08-30T04:14:58;6.07;;;3.95;;
10987;SDS011;5547;42.672;23.230;2023-08-30T04:17:59;6.97;;;3.80;;
10987;SDS011;5547;42.672;23.230;2023-08-30T04:20:59;5.50;;;3.30;;
10987;SDS011;5547;42.672;23.230;2023-08-30T04:24:02;5.35;;;3.00;;
10987;SDS011;5547;42.672;23.230;2023-08-30T04:27:02;5.37;;;2.80;;
10987;SDS011;5547;42.672;23.230;2023-08-30T04:30:03;8.02;;;2.90;;
10987;SDS011;5547;42.672;23.230;2023-08-30T04:33:04;5.87;;;2.77;;
10987;SDS011;5547;42.672;23.230;2023-08-30T04:36:05;7.63;;;3.53;;
10987;SDS011;5547;42.672;23.230;2023-08-30T04:39:06;6.73;;;3.57;;
10987;SDS011;5547;42.672;23.230;2023-08-30T04:42:06;8.10;;;3.78;;
10987;SDS011;5547;42.672;23.230;2023-08-30T04:45:06;8.32;;;3.47;;
10987;SDS011;5547;42.672;23.230;2023-08-30T04:48:07;6.80;;;3.53;;
10987;SDS011;5547;42.672;23.230;2023-08-30T04:51:08;5.80;;;3.20;;
10987;SDS011;5547;42.672;23.230;2023-08-30T04:54:08;6.53;;;3.53;;
10987;SDS011;5547;42.672;23.230;2023-08-30T04:57:09;5.78;;;3.40;;
10987;SDS011;5547;42.672;23.230;2023-08-30T05:00:09;6.80;;;3.47;;
10987;SDS011;5547;42.672;23.230;2023-08-30T05:03:11;5.15;;;3.30;;
10987;SDS011;5547;42.672;23.230;2023-08-30T05:06:11;6.18;;;3.60;;
10987;SDS011;5547;42.672;23.230;2023-08-30T05:09:16;7.13;;;3.70;;
10987;SDS011;5547;42.672;23.230;2023-08-30T05:12:16;7.87;;;3.90;;
10987;SDS011;5547;42.672;23.230;2023-08-30T05:15:16;9.70;;;3.80;;
10987;SDS011;5547;42.672;23.230;2023-08-30T05:18:18;7.28;;;3.35;;
10987;SDS011;5547;42.672;23.230;2023-08-30T05:21:19;6.73;;;3.50;;
10987;SDS011;5547;42.672;23.230;2023-08-30T05:24:19;7.57;;;3.60;;
10987;SDS011;5547;42.672;23.230;2023-08-30T05:27:20;6.22;;;3.65;;
10987;SDS011;5547;42.672;23.230;2023-08-30T05:30:20;5.83;;;3.77;;
10987;SDS011;5547;42.672;23.230;2023-08-30T05:33:20;6.50;;;3.80;;
10987;SDS011;5547;42.672;23.230;2023-08-30T05:36:21;7.07;;;3.30;;
10987;SDS011;5547;42.672;23.230;2023-08-30T05:39:21;7.07;;;3.30;;
10987;SDS011;5547;42.672;23.230;2023-08-30T05:42:22;6.17;;;3.20;;
10987;SDS011;5547;42.672;23.230;2023-08-30T05:45:22;5.27;;;3.10;;
10987;SDS011;5547;42.672;23.230;2023-08-30T05:48:23;5.35;;;2.78;;
10987;SDS011;5547;42.672;23.230;2023-08-30T05:51:23;5.10;;;3.03;;
10987;SDS011;5547;42.672;23.230;2023-08-30T05:54:24;4.87;;;2.90;;
10987;SDS011;5547;42.672;23.230;2023-08-30T05:57:26;4.38;;;2.70;;
10987;SDS011;5547;42.672;23.230;2023-08-30T06:00:33;5.18;;;2.63;;
10987;SDS011;5547;42.672;23.230;2023-08-30T06:03:34;3.67;;;2.77;;
10987;SDS011;5547;42.672;23.230;2023-08-30T06:06:35;3.72;;;2.63;;
10987;SDS011;5547;42.672;23.230;2023-08-30T06:09:36;5.53;;;3.13;;
10987;SDS011;5547;42.672;23.230;2023-08-30T06:12:36;6.37;;;2.87;;
10987;SDS011;5547;42.672;23.230;2023-08-30T06:15:37;5.50;;;3.23;;
10987;SDS011;5547;42.672;23.230;2023-08-30T06:18:40;5.03;;;2.50;;
10987;SDS011;5547;42.672;23.230;2023-08-30T06:21:41;4.70;;;2.90;;
10987;SDS011;5547;42.672;23.230;2023-08-30T06:24:42;4.33;;;2.73;;
10987;SDS011;5547;42.672;23.230;2023-08-30T06:27:43;5.90;;;2.78;;
10987;SDS011;5547;42.672;23.230;2023-08-30T06:30:55;7.00;;;2.97;;
10987;SDS011;5547;42.672;23.230;2023-08-30T06:33:57;5.03;;;3.10;;
10987;SDS011;5547;42.672;23.230;2023-08-30T06:36:57;4.53;;;2.85;;
10987;SDS011;5547;42.672;23.230;2023-08-30T06:39:58;6.40;;;2.93;;
10987;SDS011;5547;42.672;23.230;2023-08-30T06:42:58;5.13;;;2.60;;
10987;SDS011;5547;42.672;23.230;2023-08-30T06:45:59;4.20;;;2.80;;
10987;SDS011;5547;42.672;23.230;2023-08-30T06:49:00;5.25;;;2.88;;
10987;SDS011;5547;42.672;23.230;2023-08-30T06:52:01;4.93;;;2.47;;
10987;SDS011;5547;42.672;23.230;2023-08-30T06:55:03;4.07;;;2.83;;
10987;SDS011;5547;42.672;23.230;2023-08-30T06:58:04;4.97;;;2.97;;
10987;SDS011;5547;42.672;23.230;2023-08-30T07:01:05;4.90;;;3.10;;
10987;SDS011;5547;42.672;23.230;2023-08-30T07:04:05;4.37;;;2.60;;
10987;SDS011;5547;42.672;23.230;2023-08-30T07:07:06;5.63;;;2.87;;
10987;SDS011;5547;42.672;23.230;2023-08-30T07:10:06;5.13;;;3.23;;
10987;SDS011;5547;42.672;23.230;2023-08-30T07:13:07;5.05;;;2.97;;
10987;SDS011;5547;42.672;23.230;2023-08-30T07:16:10;5.25;;;2.85;;
10987;SDS011;5547;42.672;23.230;2023-08-30T07:19:11;6.17;;;3.10;;
10987;SDS011;5547;42.672;23.230;2023-08-30T07:22:11;4.03;;;2.77;;
10987;SDS011;5547;42.672;23.230;2023-08-30T07:25:11;6.17;;;3.20;;
10987;SDS011;5547;42.672;23.230;2023-08-30T07:28:13;6.87;;;3.10;;
10987;SDS011;5547;42.672;23.230;2023-08-30T07:31:14;5.20;;;3.20;;
10987;SDS011;5547;42.672;23.230;2023-08-30T07:34:16;5.37;;;3.03;;
10987;SDS011;5547;42.672;23.230;2023-08-30T07:37:20;6.85;;;3.00;;
10987;SDS011;5547;42.672;23.230;2023-08-30T07:40:21;5.87;;;2.93;;
10987;SDS011;5547;42.672;23.230;2023-08-30T07:43:26;5.03;;;2.47;;
10987;SDS011;5547;42.672;23.230;2023-08-30T07:46:26;5.60;;;2.40;;
10987;SDS011;5547;42.672;23.230;2023-08-30T07:49:28;5.37;;;2.10;;
10987;SDS011;5547;42.672;23.230;2023-08-30T07:52:28;5.00;;;2.17;;
10987;SDS011;5547;42.672;23.230;2023-08-30T07:55:31;4.38;;;2.42;;
10987;SDS011;5547;42.672;23.230;2023-08-30T07:58:35;5.85;;;2.20;;
10987;SDS011;5547;42.672;23.230;2023-08-30T08:01:37;4.80;;;1.67;;
10987;SDS011;5547;42.672;23.230;2023-08-30T08:04:37;4.33;;;2.23;;
10987;SDS011;5547;42.672;23.230;2023-08-30T08:07:38;4.20;;;1.87;;
10987;SDS011;5547;42.672;23.230;2023-08-30T08:10:42;4.40;;;2.05;;
10987;SDS011;5547;42.672;23.230;2023-08-30T08:13:44;4.83;;;2.10;;
10987;SDS011;5547;42.672;23.230;2023-08-30T08:16:44;7.65;;;2.50;;
10987;SDS011;5547;42.672;23.230;2023-08-30T08:19:45;5.17;;;2.30;;
10987;SDS011;5547;42.672;23.230;2023-08-30T08:22:46;4.33;;;2.10;;
10987;SDS011;5547;42.672;23.230;2023-08-30T08:25:46;5.40;;;2.30;;
10987;SDS011;5547;42.672;23.230;2023-08-30T08:28:47;4.40;;;2.10;;
10987;SDS011;5547;42.672;23.230;2023-08-30T08:31:48;3.90;;;2.30;;
10987;SDS011;5547;42.672;23.230;2023-08-30T08:34:49;5.15;;;2.35;;
10987;SDS011;5547;42.672;23.230;2023-08-30T08:37:49;4.27;;;2.30;;
10987;SDS011;5547;42.672;23.230;2023-08-30T08:40:50;7.20;;;2.60;;
10987;SDS011;5547;42.672;23.230;2023-08-30T08:44:01;8.07;;;2.50;;
10987;SDS011;5547;42.672;23.230;2023-08-30T08:47:03;6.20;;;2.20;;
10987;SDS011;5547;42.672;23.230;2023-08-30T08:50:04;5.57;;;2.55;;
10987;SDS011;5547;42.672;23.230;2023-08-30T08:53:05;5.82;;;3.10;;
10987;SDS011;5547;42.672;23.230;2023-08-30T08:56:07;5.00;;;2.70;;
10987;SDS011;5547;42.672;23.230;2023-08-30T08:59:08;4.55;;;2.85;;
10987;SDS011;5547;42.672;23.230;2023-08-30T09:02:09;5.57;;;2.85;;
10987;SDS011;5547;42.672;23.230;2023-08-30T09:05:13;4.68;;;2.88;;
10987;SDS011;5547;42.672;23.230;2023-08-30T09:08:15;6.05;;;3.22;;
10987;SDS011;5547;42.672;23.230;2023-08-30T09:11:16;14.10;;;4.60;;
10987;SDS011;5547;42.672;23.230;2023-08-30T09:14:17;20.10;;;5.93;;
10987;SDS011;5547;42.672;23.230;2023-08-30T09:17:19;17.48;;;5.70;;
10987;SDS011;5547;42.672;23.230;2023-08-30T09:20:19;5.83;;;3.97;;
10987;SDS011;5547;42.672;23.230;2023-08-30T09:23:20;7.50;;;3.93;;
10987;SDS011;5547;42.672;23.230;2023-08-30T09:26:22;7.57;;;4.33;;
10987;SDS011;5547;42.672;23.230;2023-08-30T09:29:22;7.03;;;3.95;;
10987;SDS011;5547;42.672;23.230;2023-08-30T09:32:23;5.50;;;3.92;;
10987;SDS011;5547;42.672;23.230;2023-08-30T09:35:23;6.67;;;4.50;;
10987;SDS011;5547;42.672;23.230;2023-08-30T09:38:24;5.40;;;3.50;;
10987;SDS011;5547;42.672;23.230;2023-08-30T09:41:25;5.30;;;3.88;;
10987;SDS011;5547;42.672;23.230;2023-08-30T09:44:29;6.55;;;4.15;;
10987;SDS011;5547;42.672;23.230;2023-08-30T09:47:29;6.00;;;4.00;;
10987;SDS011;5547;42.672;23.230;2023-08-30T09:50:31;8.60;;;4.03;;
10987;SDS011;5547;42.672;23.230;2023-08-30T09:53:37;5.75;;;3.85;;
10987;SDS011;5547;42.672;23.230;2023-08-30T09:56:44;5.57;;;3.95;;
10987;SDS011;5547;42.672;23.230;2023-08-30T09:59:45;7.45;;;4.35;;
10987;SDS011;5547;42.672;23.230;2023-08-30T10:02:46;6.95;;;4.10;;
10987;SDS011;5547;42.672;23.230;2023-08-30T10:05:47;7.93;;;4.05;;
10987;SDS011;5547;42.672;23.230;2023-08-30T10:08:47;6.23;;;4.20;;
10987;SDS011;5547;42.672;23.230;2023-08-30T10:11:49;6.50;;;4.18;;
10987;SDS011;5547;42.672;23.230;2023-08-30T10:14:50;8.23;;;4.23;;
10987;SDS011;5547;42.672;23.230;2023-08-30T10:17:52;5.80;;;4.03;;
10987;SDS011;5547;42.672;23.230;2023-08-30T10:20:54;6.78;;;4.60;;
10987;SDS011;5547;42.672;23.230;2023-08-30T10:23:57;6.63;;;4.30;;
10987;SDS011;5547;42.672;23.230;2023-08-30T10:26:59;6.45;;;4.15;;
10987;SDS011;5547;42.672;23.230;2023-08-30T10:30:04;7.20;;;4.30;;
10987;SDS011;5547;42.672;23.230;2023-08-30T10:33:13;6.40;;;4.35;;
10987;SDS011;5547;42.672;23.230;2023-08-30T10:36:20;5.43;;;4.32;;
10987;SDS011;5547;42.672;23.230;2023-08-30T10:39:27;6.10;;;4.53;;
10987;SDS011;5547;42.672;23.230;2023-08-30T10:42:33;5.60;;;4.00;;
10987;SDS011;5547;42.672;23.230;2023-08-30T10:45:34;7.40;;;4.40;;
10987;SDS011;5547;42.672;23.230;2023-08-30T10:48:35;7.15;;;4.32;;
10987;SDS011;5547;42.672;23.230;2023-08-30T10:51:37;6.13;;;4.30;;
10987;SDS011;5547;42.672;23.230;2023-08-30T10:54:39;6.38;;;4.30;;
10987;SDS011;5547;42.672;23.230;2023-08-30T10:57:43;8.03;;;4.57;;
10987;SDS011;5547;42.672;23.230;2023-08-30T11:00:45;6.47;;;4.47;;
10987;SDS011;5547;42.672;23.230;2023-08-30T11:03:47;6.00;;;4.30;;
10987;SDS011;5547;42.672;23.230;2023-08-30T11:06:50;6.43;;;4.20;;
10987;SDS011;5547;42.672;23.230;2023-08-30T11:09:51;7.55;;;4.03;;
10987;SDS011;5547;42.672;23.230;2023-08-30T11:12:52;4.55;;;3.67;;
10987;SDS011;5547;42.672;23.230;2023-08-30T11:15:52;7.88;;;3.60;;
10987;SDS011;5547;42.672;23.230;2023-08-30T11:18:53;6.72;;;3.67;;
10987;SDS011;5547;42.672;23.230;2023-08-30T11:21:53;5.30;;;3.53;;
10987;SDS011;5547;42.672;23.230;2023-08-30T11:24:54;5.85;;;3.55;;
10987;SDS011;5547;42.672;23.230;2023-08-30T11:28:04;5.43;;;3.50;;
10987;SDS011;5547;42.672;23.230;2023-08-30T11:31:04;5.93;;;3.10;;
10987;SDS011;5547;42.672;23.230;2023-08-30T11:34:05;5.40;;;3.63;;
10987;SDS011;5547;42.672;23.230;2023-08-30T11:37:05;5.53;;;4.00;;
10987;SDS011;5547;42.672;23.230;2023-08-30T11:40:07;5.97;;;3.70;;
10987;SDS011;5547;42.672;23.230;2023-08-30T11:43:08;5.95;;;3.60;;
10987;SDS011;5547;42.672;23.230;2023-08-30T11:46:09;6.15;;;3.42;;
10987;SDS011;5547;42.672;23.230;2023-08-30T11:49:09;7.87;;;4.10;;
10987;SDS011;5547;42.672;23.230;2023-08-30T11:52:10;6.60;;;3.77;;
10987;SDS011;5547;42.672;23.230;2023-08-30T11:55:11;6.00;;;3.88;;
10987;SDS011;5547;42.672;23.230;2023-08-30T11:58:12;7.23;;;4.27;;
10987;SDS011;5547;42.672;23.230;2023-08-30T12:01:12;6.80;;;4.40;;
10987;SDS011;5547;42.672;23.230;2023-08-30T12:04:14;6.30;;;4.35;;
10987;SDS011;5547;42.672;23.230;2023-08-30T12:07:24;6.03;;;4.13;;
10987;SDS011;5547;42.672;23.230;2023-08-30T12:10:28;4.68;;;3.47;;
10987;SDS011;5547;42.672;23.230;2023-08-30T12:13:29;6.43;;;4.00;;
10987;SDS011;5547;42.672;23.230;2023-08-30T12:16:32;5.32;;;3.80;;
10987;SDS011;5547;42.672;23.230;2023-08-30T12:19:32;5.47;;;3.72;;
10987;SDS011;5547;42.672;23.230;2023-08-30T12:22:37;6.05;;;4.00;;
10987;SDS011;5547;42.672;23.230;2023-08-30T12:25:38;6.70;;;4.00;;
10987;SDS011;5547;42.672;23.230;2023-08-30T12:28:41;5.37;;;3.60;;
10987;SDS011;5547;42.672;23.230;2023-08-30T12:31:44;5.90;;;4.05;;
10987;SDS011;5547;42.672;23.230;2023-08-30T12:34:44;5.47;;;3.80;;
10987;SDS011;5547;42.672;23.230;2023-08-30T12:37:45;4.97;;;3.80;;
10987;SDS011;5547;42.672;23.230;2023-08-30T12:40:45;5.10;;;3.40;;
10987;SDS011;5547;42.672;23.230;2023-08-30T12:43:47;5.57;;;3.35;;
10987;SDS011;5547;42.672;23.230;2023-08-30T12:46:47;5.20;;;3.30;;
10987;SDS011;5547;42.672;23.230;2023-08-30T12:49:47;5.77;;;3.47;;
10987;SDS011;5547;42.672;23.230;2023-08-30T12:52:48;5.77;;;3.47;;
10987;SDS011;5547;42.672;23.230;2023-08-30T12:55:48;6.37;;;3.57;;
10987;SDS011;5547;42.672;23.230;2023-08-30T12:58:48;5.77;;;3.20;;
10987;SDS011;5547;42.672;23.230;2023-08-30T13:01:49;6.40;;;3.47;;
10987;SDS011;5547;42.672;23.230;2023-08-30T13:04:50;5.93;;;3.38;;
10987;SDS011;5547;42.672;23.230;2023-08-30T13:07:50;6.30;;;4.07;;
10987;SDS011;5547;42.672;23.230;2023-08-30T13:10:51;5.67;;;3.20;;
10987;SDS011;5547;42.672;23.230;2023-08-30T13:13:51;5.57;;;3.17;;
10987;SDS011;5547;42.672;23.230;2023-08-30T13:16:53;5.97;;;3.28;;
10987;SDS011;5547;42.672;23.230;2023-08-30T13:19:53;6.30;;;3.30;;
10987;SDS011;5547;42.672;23.230;2023-08-30T13:22:54;6.27;;;3.13;;
10987;SDS011;5547;42.672;23.230;2023-08-30T13:25:54;5.03;;;3.00;;
10987;SDS011;5547;42.672;23.230;2023-08-30T13:28:54;4.60;;;3.37;;
10987;SDS011;5547;42.672;23.230;2023-08-30T13:31:57;6.13;;;3.10;;
10987;SDS011;5547;42.672;23.230;2023-08-30T13:35:00;5.28;;;3.50;;
10987;SDS011;5547;42.672;23.230;2023-08-30T13:38:00;5.10;;;3.63;;
10987;SDS011;5547;42.672;23.230;2023-08-30T13:41:01;6.30;;;3.63;;
10987;SDS011;5547;42.672;23.230;2023-08-30T13:44:04;4.30;;;3.00;;
10987;SDS011;5547;42.672;23.230;2023-08-30T13:47:06;6.40;;;3.60;;
10987;SDS011;5547;42.672;23.230;2023-08-30T13:50:07;5.90;;;3.40;;
10987;SDS011;5547;42.672;23.230;2023-08-30T13:53:08;4.55;;;3.30;;
10987;SDS011;5547;42.672;23.230;2023-08-30T13:56:09;5.43;;;3.17;;
10987;SDS011;5547;42.672;23.230;2023-08-30T13:59:09;6.03;;;3.45;;
10987;SDS011;5547;42.672;23.230;2023-08-30T14:02:10;5.78;;;3.78;;
10987;SDS011;5547;42.672;23.230;2023-08-30T14:05:10;4.90;;;3.10;;
10987;SDS011;5547;42.672;23.230;2023-08-30T14:08:11;4.87;;;3.00;;
10987;SDS011;5547;42.672;23.230;2023-08-30T14:11:11;5.90;;;2.83;;
10987;SDS011;5547;42.672;23.230;2023-08-30T14:14:13;4.93;;;2.70;;
10987;SDS011;5547;42.672;23.230;2023-08-30T14:17:13;4.10;;;2.47;;
10987;SDS011;5547;42.672;23.230;2023-08-30T14:20:14;4.65;;;2.63;;
10987;SDS011;5547;42.672;23.230;2023-08-30T14:23:15;6.57;;;2.47;;
10987;SDS011;5547;42.672;23.230;2023-08-30T14:26:15;4.60;;;2.60;;
10987;SDS011;5547;42.672;23.230;2023-08-30T14:29:19;9.25;;;3.33;;
10987;SDS011;5547;42.672;23.230;2023-08-30T14:32:21;4.25;;;2.42;;
10987;SDS011;5547;42.672;23.230;2023-08-30T14:35:21;4.75;;;2.28;;
10987;SDS011;5547;42.672;23.230;2023-08-30T14:38:24;4.13;;;2.03;;
10987;SDS011;5547;42.672;23.230;2023-08-30T14:41:24;4.53;;;2.00;;
10987;SDS011;5547;42.672;23.230;2023-08-30T14:44:25;3.50;;;1.90;;
10987;SDS011;5547;42.672;23.230;2023-08-30T14:47:25;4.50;;;2.00;;
10987;SDS011;5547;42.672;23.230;2023-08-30T14:50:26;4.27;;;2.00;;
10987;SDS011;5547;42.672;23.230;2023-08-30T14:53:26;4.70;;;2.37;;
10987;SDS011;5547;42.672;23.230;2023-08-30T14:56:27;5.03;;;2.50;;
10987;SDS011;5547;42.672;23.230;2023-08-30T14:59:27;5.67;;;2.90;;
10987;SDS011;5547;42.672;23.230;2023-08-30T15:02:28;5.03;;;2.40;;
10987;SDS011;5547;42.672;23.230;2023-08-30T15:05:29;4.10;;;2.40;;
10987;SDS011;5547;42.672;23.230;2023-08-30T15:08:29;5.00;;;2.50;;
10987;SDS011;5547;42.672;23.230;2023-08-30T15:11:29;4.77;;;2.40;;
10987;SDS011;5547;42.672;23.230;2023-08-30T15:14:31;4.80;;;2.50;;
10987;SDS011;5547;42.672;23.230;2023-08-30T15:17:34;4.83;;;2.53;;
10987;SDS011;5547;42.672;23.230;2023-08-30T15:20:34;5.63;;;2.73;;
10987;SDS011;5547;42.672;23.230;2023-08-30T15:23:35;6.03;;;3.03;;
10987;SDS011;5547;42.672;23.230;2023-08-30T15:26:38;6.90;;;2.72;;
10987;SDS011;5547;42.672;23.230;2023-08-30T15:29:39;6.82;;;3.00;;
10987;SDS011;5547;42.672;23.230;2023-08-30T15:32:40;6.18;;;2.45;;
10987;SDS011;5547;42.672;23.230;2023-08-30T15:35:42;4.75;;;2.50;;
10987;SDS011;5547;42.672;23.230;2023-08-30T15:38:43;4.68;;;2.20;;
10987;SDS011;5547;42.672;23.230;2023-08-30T15:41:45;6.70;;;2.40;;
10987;SDS011;5547;42.672;23.230;2023-08-30T15:44:48;5.22;;;2.38;;
10987;SDS011;5547;42.672;23.230;2023-08-30T15:47:48;4.90;;;2.37;;
10987;SDS011;5547;42.672;23.230;2023-08-30T15:50:48;5.47;;;2.20;;
10987;SDS011;5547;42.672;23.230;2023-08-30T15:53:49;6.23;;;3.00;;
10987;SDS011;5547;42.672;23.230;2023-08-30T15:56:50;4.45;;;2.40;;
10987;SDS011;5547;42.672;23.230;2023-08-30T15:59:51;5.00;;;2.33;;
10987;SDS011;5547;42.672;23.230;2023-08-30T16:02:51;5.53;;;2.60;;
10987;SDS011;5547;42.672;23.230;2023-08-30T16:05:52;5.00;;;2.10;;
10987;SDS011;5547;42.672;23.230;2023-08-30T16:08:52;5.13;;;2.23;;
10987;SDS011;5547;42.672;23.230;2023-08-30T16:11:53;3.50;;;2.00;;
10987;SDS011;5547;42.672;23.230;2023-08-30T16:14:53;4.32;;;2.10;;
10987;SDS011;5547;42.672;23.230;2023-08-30T16:17:54;4.35;;;2.03;;
10987;SDS011;5547;42.672;23.230;2023-08-30T16:20:55;4.77;;;2.10;;
10987;SDS011;5547;42.672;23.230;2023-08-30T16:23:55;4.60;;;2.03;;
10987;SDS011;5547;42.672;23.230;2023-08-30T16:26:55;4.37;;;1.97;;
10987;SDS011;5547;42.672;23.230;2023-08-30T16:29:56;5.25;;;2.20;;
10987;SDS011;5547;42.672;23.230;2023-08-30T16:32:56;4.80;;;2.08;;
10987;SDS011;5547;42.672;23.230;2023-08-30T16:36:00;5.50;;;2.00;;
10987;SDS011;5547;42.672;23.230;2023-08-30T16:39:01;4.33;;;2.00;;
10987;SDS011;5547;42.672;23.230;2023-08-30T16:42:01;5.75;;;2.22;;
10987;SDS011;5547;42.672;23.230;2023-08-30T16:45:02;4.53;;;2.10;;
10987;SDS011;5547;42.672;23.230;2023-08-30T16:48:02;5.15;;;2.15;;
10987;SDS011;5547;42.672;23.230;2023-08-30T16:51:05;4.97;;;2.17;;
10987;SDS011;5547;42.672;23.230;2023-08-30T16:54:06;3.80;;;2.10;;
10987;SDS011;5547;42.672;23.230;2023-08-30T16:57:06;5.65;;;2.13;;
10987;SDS011;5547;42.672;23.230;2023-08-30T17:00:08;3.38;;;2.00;;
10987;SDS011;5547;42.672;23.230;2023-08-30T17:03:09;5.32;;;2.05;;
10987;SDS011;5547;42.672;23.230;2023-08-30T17:06:09;6.80;;;2.53;;
10987;SDS011;5547;42.672;23.230;2023-08-30T17:09:10;6.60;;;2.20;;
10987;SDS011;5547;42.672;23.230;2023-08-30T17:12:10;4.43;;;2.40;;
10987;SDS011;5547;42.672;23.230;2023-08-30T17:15:11;6.10;;;2.37;;
10987;SDS011;5547;42.672;23.230;2023-08-30T17:18:11;3.90;;;2.30;;
10987;SDS011;5547;42.672;23.230;2023-08-30T17:21:12;6.47;;;2.50;;
10987;SDS011;5547;42.672;23.230;2023-08-30T17:24:13;8.85;;;2.47;;
10987;SDS011;5547;42.672;23.230;2023-08-30T17:27:13;6.10;;;2.30;;
10987;SDS011;5547;42.672;23.230;2023-08-30T17:30:13;5.27;;;2.00;;
10987;SDS011;5547;42.672;23.230;2023-08-30T17:33:16;3.30;;;2.05;;
10987;SDS011;5547;42.672;23.230;2023-08-30T17:36:16;4.57;;;1.80;;
10987;SDS011;5547;42.672;23.230;2023-08-30T17:39:17;4.47;;;2.10;;
10987;SDS011;5547;42.672;23.230;2023-08-30T17:42:17;4.73;;;2.40;;
10987;SDS011;5547;42.672;23.230;2023-08-30T17:45:17;6.33;;;2.40;;
10987;SDS011;5547;42.672;23.230;2023-08-30T17:48:18;6.40;;;2.57;;
10987;SDS011;5547;42.672;23.230;2023-08-30T17:51:19;5.40;;;3.05;;
10987;SDS011;5547;42.672;23.230;2023-08-30T17:54:19;5.27;;;2.67;;
10987;SDS011;5547;42.672;23.230;2023-08-30T17:57:19;6.50;;;2.73;;
10987;SDS011;5547;42.672;23.230;2023-08-30T18:00:20;7.07;;;2.50;;
10987;SDS011;5547;42.672;23.230;2023-08-30T18:03:20;4.77;;;2.10;;
10987;SDS011;5547;42.672;23.230;2023-08-30T18:06:21;5.72;;;2.40;;
10987;SDS011;5547;42.672;23.230;2023-08-30T18:09:22;6.15;;;2.45;;
10987;SDS011;5547;42.672;23.230;2023-08-30T18:12:23;4.33;;;2.30;;
10987;SDS011;5547;42.672;23.230;2023-08-30T18:15:23;7.50;;;2.57;;